createdAt,value
2023-03-11T00:00:30.131Z,92248.41
2023-03-11T00:03:00.464Z,92245.56
2023-03-11T00:05:30.753Z,92243.41
2023-03-11T00:07:58.074Z,92239.22
2023-03-11T00:10:40.227Z,92241.84
2023-03-11T00:13:08.584Z,92230.94
2023-03-11T00:15:35.959Z,92226.38
2023-03-11T00:18:02.883Z,92230.63
2023-03-11T00:20:38.023Z,92233.56
2023-03-11T00:23:06.139Z,92244.03
2023-03-11T00:25:33.975Z,92247.06
2023-03-11T00:28:00.922Z,92234.88
2023-03-11T00:30:28.246Z,92246.38
2023-03-11T00:32:57.545Z,92271.78
2023-03-11T00:35:29.532Z,92272.47
2023-03-11T00:37:58.579Z,92278.50
2023-03-11T00:40:26.722Z,92277.03
2023-03-11T00:42:53.640Z,92286.38
2023-03-11T00:45:20.784Z,92314.38
2023-03-11T00:47:47.597Z,92291.69
2023-03-11T00:50:18.268Z,92302.44
2023-03-11T00:52:49.103Z,92296.53
2023-03-11T00:55:18.545Z,92297.97
2023-03-11T00:57:45.388Z,92311.09
2023-03-11T01:00:17.520Z,92304.59
2023-03-11T01:02:44.467Z,92321.09
2023-03-11T01:05:12.056Z,92334.69
2023-03-11T01:07:38.828Z,92338.53
2023-03-11T01:10:07.732Z,92356.34
2023-03-11T01:12:34.582Z,92375.56
2023-03-11T01:15:01.373Z,92377.63
2023-03-11T01:17:28.124Z,92377.88
2023-03-11T01:19:54.881Z,92374.34
2023-03-11T01:22:21.635Z,92378.88
2023-03-11T01:24:48.466Z,92392.19
2023-03-11T01:27:15.157Z,92387.22
2023-03-11T01:29:41.920Z,92393.25
2023-03-11T01:32:08.722Z,92389.41
2023-03-11T01:34:36.263Z,92385.22
2023-03-11T01:37:03.932Z,92372.38
2023-03-11T01:39:30.736Z,92368.38
2023-03-11T01:41:57.521Z,92375.63
2023-03-11T01:44:24.311Z,92379.31
2023-03-11T01:46:54.280Z,92375.75
2023-03-11T01:49:22.502Z,92403.38
2023-03-11T01:52:08.829Z,92400.25
2023-03-11T01:54:38.800Z,92407.28
2023-03-11T01:57:07.319Z,92423.16
2023-03-11T01:59:38.901Z,92445.06
2023-03-11T02:02:11.822Z,92433.22
2023-03-11T02:04:40.752Z,92421.59
2023-03-11T02:07:08.302Z,92425.38
2023-03-11T02:09:35.171Z,92440.81
2023-03-11T02:12:03.333Z,92423.94
2023-03-11T02:14:30.994Z,92448.53
2023-03-11T02:16:58.301Z,92429.09
2023-03-11T02:19:36.034Z,92457.50
2023-03-11T02:22:02.824Z,92456.72
2023-03-11T02:24:47.981Z,92451.09
2023-03-11T02:27:16.978Z,92472.59
2023-03-11T02:29:45.867Z,92468.31
2023-03-11T02:32:12.695Z,92479.75
2023-03-11T02:34:39.983Z,92495.13
2023-03-11T02:37:10.166Z,92497.59
2023-03-11T02:39:39.488Z,92488.09
2023-03-11T02:42:11.211Z,92504.97
2023-03-11T02:44:38.423Z,92508.88
2023-03-11T02:47:05.526Z,92507.63
2023-03-11T02:49:32.954Z,92495.56
2023-03-11T02:51:59.632Z,92489.88
2023-03-11T02:54:26.447Z,92489.09
2023-03-11T02:56:53.104Z,92499.56
2023-03-11T02:59:19.841Z,92497.34
2023-03-11T03:01:46.539Z,92505.75
2023-03-11T03:04:13.370Z,92511.06
2023-03-11T03:06:40.095Z,92523.88
2023-03-11T03:09:06.899Z,92523.97
2023-03-11T03:11:33.604Z,92526.03
2023-03-11T03:14:00.286Z,92526.66
2023-03-11T03:16:27.054Z,92519.75
2023-03-11T03:18:53.803Z,92529.50
2023-03-11T03:21:20.585Z,92533.72
2023-03-11T03:23:47.302Z,92533.44
2023-03-11T03:26:14.935Z,92528.78
2023-03-11T03:28:41.742Z,92545.63
2023-03-11T03:31:10.067Z,92541.91
2023-03-11T03:33:37.056Z,92532.22
2023-03-11T03:36:12.377Z,92538.19
2023-03-11T03:38:39.257Z,92546.63
2023-03-11T03:41:06.285Z,92557.63
2023-03-11T03:43:33.150Z,92545.50
2023-03-11T03:46:05.404Z,92551.56
2023-03-11T03:48:32.365Z,92558.63
2023-03-11T03:51:07.977Z,92545.34
2023-03-11T03:53:35.781Z,92560.41
2023-03-11T03:56:07.735Z,92553.75
2023-03-11T03:58:34.543Z,92543.00
2023-03-11T04:01:01.603Z,92543.16
2023-03-11T04:03:28.870Z,92544.53
2023-03-11T04:06:06.267Z,92572.03
2023-03-11T04:08:33.014Z,92572.16
2023-03-11T04:10:59.721Z,92558.06
2023-03-11T04:13:26.434Z,92560.22
2023-03-11T04:15:53.157Z,92583.75
2023-03-11T04:18:19.896Z,92596.69
2023-03-11T04:20:46.665Z,92570.81
2023-03-11T04:23:13.453Z,92590.78
2023-03-11T04:25:40.160Z,92601.75
2023-03-11T04:28:07.229Z,92591.44
2023-03-11T04:30:34.067Z,92604.47
2023-03-11T04:33:00.935Z,92602.53
2023-03-11T04:35:27.680Z,92604.16
2023-03-11T04:37:54.511Z,92606.53
2023-03-11T04:40:21.391Z,92609.31
2023-03-11T04:42:48.306Z,92596.47
2023-03-11T04:45:15.271Z,92626.59
2023-03-11T04:47:42.011Z,92616.75
2023-03-11T04:50:09.207Z,92616.50
2023-03-11T04:52:35.934Z,92633.59
2023-03-11T04:55:02.642Z,92613.53
2023-03-11T04:57:29.363Z,92619.81
2023-03-11T04:59:56.132Z,92629.78
2023-03-11T05:02:22.869Z,92629.91
2023-03-11T05:04:49.669Z,92624.63
2023-03-11T05:07:16.783Z,92636.44
2023-03-11T05:09:44.011Z,92606.97
2023-03-11T05:12:13.744Z,92644.31
2023-03-11T05:14:40.877Z,92614.56
2023-03-11T05:17:08.191Z,92645.34
2023-03-11T05:19:35.332Z,92641.38
2023-03-11T05:22:05.508Z,92637.22
2023-03-11T05:24:32.129Z,92633.72
2023-03-11T05:26:58.974Z,92635.66
2023-03-11T05:29:25.884Z,92628.75
2023-03-11T05:31:52.586Z,92634.50
2023-03-11T05:34:19.285Z,92645.69
2023-03-11T05:36:46.142Z,92643.94
2023-03-11T05:39:12.830Z,92649.06
2023-03-11T05:41:39.448Z,92644.19
2023-03-11T05:44:06.232Z,92629.56
2023-03-11T05:46:33.008Z,92629.06
2023-03-11T05:49:00.438Z,92653.59
2023-03-11T05:51:27.080Z,92644.66
2023-03-11T05:53:53.627Z,92649.75
2023-03-11T05:56:22.364Z,92656.28
2023-03-11T05:58:49.657Z,92651.19
2023-03-11T06:01:18.855Z,92645.28
2023-03-11T06:03:45.573Z,92663.72
2023-03-11T06:06:13.372Z,92657.50
2023-03-11T06:08:41.414Z,92669.66
2023-03-11T06:11:10.263Z,92670.38
2023-03-11T06:13:37.711Z,92681.00
2023-03-11T06:16:05.105Z,92677.59
2023-03-11T06:18:31.803Z,92675.22
2023-03-11T06:20:59.757Z,92684.56
2023-03-11T06:23:27.080Z,92687.94
2023-03-11T06:25:57.662Z,92702.81
2023-03-11T06:28:24.555Z,92717.91
2023-03-11T06:30:51.208Z,92699.50
2023-03-11T06:33:17.823Z,92712.66
2023-03-11T06:35:44.527Z,92718.88
2023-03-11T06:38:11.322Z,92716.78
2023-03-11T06:40:38.908Z,92727.91
2023-03-11T06:43:05.479Z,92726.66
2023-03-11T06:45:32.144Z,92736.91
2023-03-11T06:47:58.839Z,92736.44
2023-03-11T06:50:26.169Z,92748.41
2023-03-11T06:52:52.854Z,92747.56
2023-03-11T06:55:21.305Z,92751.69
2023-03-11T06:57:48.154Z,92735.88
2023-03-11T07:00:15.481Z,92751.88
2023-03-11T07:02:42.453Z,92748.63
2023-03-11T07:05:09.716Z,92768.78
2023-03-11T07:07:36.456Z,92755.66
2023-03-11T07:10:03.220Z,92764.66
2023-03-11T07:12:29.991Z,92769.69
2023-03-11T07:14:57.735Z,92751.50
2023-03-11T07:17:24.816Z,92756.75
2023-03-11T07:19:52.133Z,92768.38
2023-03-11T07:22:19.393Z,92760.44
2023-03-11T07:24:47.590Z,92773.44
2023-03-11T07:27:14.364Z,92766.19
2023-03-11T07:29:41.058Z,92780.38
2023-03-11T07:32:08.518Z,92778.91
2023-03-11T07:34:35.713Z,92776.06
2023-03-11T07:37:02.430Z,92777.97
2023-03-11T07:39:29.211Z,92779.91
2023-03-11T07:41:55.940Z,92799.75
2023-03-11T07:44:22.677Z,92787.31
2023-03-11T07:46:49.350Z,92784.91
2023-03-11T07:49:16.555Z,92792.44
2023-03-11T07:51:44.068Z,92782.94
2023-03-11T07:54:12.047Z,92793.94
2023-03-11T07:56:39.073Z,92785.56
2023-03-11T07:59:05.998Z,92798.19
2023-03-11T08:01:36.902Z,92781.13
2023-03-11T08:04:06.434Z,92780.31
2023-03-11T08:06:34.451Z,92774.22
2023-03-11T08:09:03.947Z,92790.34
2023-03-11T08:11:31.181Z,92779.78
2023-03-11T08:14:00.933Z,92792.06
2023-03-11T08:16:28.049Z,92790.91
2023-03-11T08:18:54.837Z,92796.63
2023-03-11T08:21:25.841Z,92792.03
2023-03-11T08:23:52.996Z,92784.19
2023-03-11T08:26:22.023Z,92813.38
2023-03-11T08:28:49.240Z,92817.28
2023-03-11T08:31:20.751Z,92796.25
2023-03-11T08:33:52.019Z,92804.19
2023-03-11T08:36:19.620Z,92822.75
2023-03-11T08:38:46.661Z,92810.63
2023-03-11T08:41:13.824Z,92815.28
2023-03-11T08:43:40.673Z,92823.44
2023-03-11T08:46:07.534Z,92815.13
2023-03-11T08:48:35.321Z,92849.00
2023-03-11T08:51:03.108Z,92833.00
2023-03-11T08:53:30.294Z,92831.19
2023-03-11T08:55:56.881Z,92834.41
2023-03-11T08:58:25.294Z,92835.78
2023-03-11T09:00:52.697Z,92826.06
2023-03-11T09:03:19.855Z,92829.88
2023-03-11T09:05:46.589Z,92832.31
2023-03-11T09:08:13.428Z,92826.97
2023-03-11T09:10:40.147Z,92848.56
2023-03-11T09:13:06.960Z,92838.03
2023-03-11T09:15:34.947Z,92826.22
2023-03-11T09:18:01.618Z,92847.41
2023-03-11T09:20:28.341Z,92849.44
2023-03-11T09:22:55.083Z,92847.97
2023-03-11T09:25:21.971Z,92840.72
2023-03-11T09:27:48.628Z,92843.00
2023-03-11T09:30:15.405Z,92852.00
2023-03-11T09:32:42.205Z,92865.09
2023-03-11T09:35:09.886Z,92855.63
2023-03-11T09:37:36.671Z,92870.25
2023-03-11T09:40:03.961Z,92876.97
2023-03-11T09:42:30.606Z,92877.03
2023-03-11T09:45:17.606Z,92863.09
2023-03-11T09:47:47.306Z,92880.31
2023-03-11T09:50:35.580Z,92862.38
2023-03-11T09:53:36.190Z,92858.16
2023-03-11T09:56:06.311Z,92857.59
2023-03-11T09:58:45.468Z,92871.25
2023-03-11T10:01:36.538Z,92862.09
2023-03-11T10:04:12.508Z,92879.63
2023-03-11T10:06:40.357Z,92866.84
2023-03-11T10:09:13.170Z,92864.66
2023-03-11T10:11:56.467Z,92874.31
2023-03-11T10:14:42.900Z,92876.47
2023-03-11T10:17:39.854Z,92870.44
2023-03-11T10:20:20.007Z,92870.41
2023-03-11T10:23:13.071Z,92877.72
2023-03-11T10:25:57.544Z,92869.88
2023-03-11T10:28:57.653Z,92894.53
2023-03-11T10:31:31.163Z,92898.94
2023-03-11T10:34:21.952Z,92881.19
2023-03-11T10:37:04.024Z,92884.16
2023-03-11T10:39:34.335Z,92895.75
2023-03-11T10:42:03.482Z,92893.63
2023-03-11T10:44:34.986Z,92888.50
2023-03-11T10:47:02.478Z,92903.84
2023-03-11T10:49:29.799Z,92901.50
2023-03-11T10:51:57.715Z,92908.69
2023-03-11T10:54:46.210Z,92905.09
2023-03-11T10:57:23.744Z,92898.94
2023-03-11T10:59:52.672Z,92900.25
2023-03-11T11:02:26.166Z,92901.25
2023-03-11T11:05:28.229Z,92909.56
2023-03-11T11:08:16.102Z,92912.94
2023-03-11T11:10:56.820Z,92904.91
2023-03-11T11:13:30.347Z,92914.28
2023-03-11T11:15:58.870Z,92896.34
2023-03-11T11:18:27.963Z,92898.13
2023-03-11T11:20:56.501Z,92906.00
2023-03-11T11:23:38.192Z,92905.06
2023-03-11T11:26:07.884Z,92903.28
2023-03-11T11:28:36.032Z,92917.63
2023-03-11T11:31:05.286Z,92912.84
2023-03-11T11:33:34.226Z,92908.34
2023-03-11T11:36:03.616Z,92913.59
2023-03-11T11:38:32.090Z,92920.56
2023-03-11T11:41:01.793Z,92919.00
2023-03-11T11:43:49.956Z,92915.97
2023-03-11T11:46:31.582Z,92909.56
2023-03-11T11:49:21.395Z,92918.97
2023-03-11T11:51:52.557Z,92923.94
2023-03-11T11:54:25.379Z,92903.63
2023-03-11T11:56:52.088Z,92916.84
2023-03-11T11:59:21.748Z,92910.34
2023-03-11T12:01:48.445Z,92910.34
2023-03-11T12:04:29.889Z,92907.31
2023-03-11T12:07:17.587Z,92923.00
2023-03-11T12:09:56.955Z,92915.81
2023-03-11T12:12:28.424Z,92912.34
2023-03-11T12:15:21.049Z,92917.09
2023-03-11T12:17:50.508Z,92915.84
2023-03-11T12:20:28.399Z,92917.78
2023-03-11T12:23:01.858Z,92918.66
2023-03-11T12:25:34.410Z,92919.22
2023-03-11T12:28:06.488Z,92931.09
2023-03-11T12:30:37.238Z,92912.47
2023-03-11T12:33:06.564Z,92935.56
2023-03-11T12:35:35.002Z,92922.91
2023-03-11T12:38:01.699Z,92925.38
2023-03-11T12:41:05.343Z,92960.13
2023-03-11T12:43:33.848Z,92947.81
2023-03-11T12:46:04.833Z,92940.53
2023-03-11T12:48:46.111Z,92933.25
2023-03-11T12:51:33.710Z,92944.09
2023-03-11T12:54:20.320Z,92929.09
2023-03-11T12:56:54.557Z,92927.75
2023-03-11T12:59:58.121Z,92938.28
2023-03-11T13:02:55.916Z,92946.47
2023-03-11T13:05:45.097Z,92961.28
2023-03-11T13:08:23.204Z,92960.03
2023-03-11T13:10:52.276Z,92949.38
2023-03-11T13:13:31.304Z,92974.22
2023-03-11T13:15:58.770Z,92981.00
2023-03-11T13:18:27.066Z,92989.84
2023-03-11T13:21:04.605Z,92992.91
2023-03-11T13:23:40.643Z,92990.53
2023-03-11T13:26:13.309Z,92985.09
2023-03-11T13:29:08.060Z,92992.44
2023-03-11T13:31:55.905Z,93004.81
2023-03-11T13:34:25.534Z,92998.38
2023-03-11T13:37:10.181Z,93013.00
2023-03-11T13:40:00.645Z,93006.84
2023-03-11T13:42:32.574Z,92989.38
2023-03-11T13:45:00.084Z,93012.56
2023-03-11T13:47:27.591Z,92998.31
2023-03-11T13:50:01.289Z,93021.63
2023-03-11T13:52:37.279Z,93026.44
2023-03-11T13:55:23.956Z,93009.34
2023-03-11T13:57:56.255Z,93021.88
2023-03-11T14:00:25.291Z,93015.75
2023-03-11T14:02:57.736Z,93024.38
2023-03-11T14:05:31.181Z,93020.13
2023-03-11T14:08:35.199Z,93022.19
2023-03-11T14:11:15.415Z,93022.53
2023-03-11T14:13:50.291Z,93020.91
2023-03-11T14:16:20.330Z,93033.69
2023-03-11T14:18:49.624Z,93029.13
2023-03-11T14:21:19.038Z,93038.31
2023-03-11T14:23:48.415Z,93053.19
2023-03-11T14:26:19.226Z,93037.13
2023-03-11T14:29:00.930Z,93050.78
2023-03-11T14:31:33.091Z,93051.06
2023-03-11T14:34:06.775Z,93048.47
2023-03-11T14:36:44.316Z,93063.09
2023-03-11T14:39:24.156Z,93073.81
2023-03-11T14:41:52.390Z,93070.47
2023-03-11T14:44:19.543Z,93056.00
2023-03-11T14:46:47.049Z,93076.56
2023-03-11T14:49:16.591Z,93074.34
2023-03-11T14:51:43.372Z,93069.63
2023-03-11T14:54:17.729Z,93081.44
2023-03-11T14:56:49.784Z,93081.94
2023-03-11T14:59:27.231Z,93072.44
2023-03-11T15:01:56.330Z,93082.16
2023-03-11T15:04:32.864Z,93080.72
2023-03-11T15:07:00.400Z,93083.28
2023-03-11T15:09:28.410Z,93082.75
2023-03-11T15:11:58.292Z,93086.88
2023-03-11T15:14:29.197Z,93104.13
2023-03-11T15:16:56.765Z,93097.75
2023-03-11T15:19:29.744Z,93113.88
2023-03-11T15:22:01.138Z,93110.09
2023-03-11T15:24:29.932Z,93094.41
2023-03-11T15:27:07.527Z,93115.13
2023-03-11T15:29:35.212Z,93112.84
2023-03-11T15:32:41.269Z,93112.53
2023-03-11T15:35:07.966Z,93123.13
2023-03-11T15:37:34.925Z,93106.97
2023-03-11T15:40:35.316Z,93130.38
2023-03-11T15:43:15.111Z,93141.84
2023-03-11T15:45:42.781Z,93142.06
2023-03-11T15:48:13.586Z,93132.41
2023-03-11T15:50:53.689Z,93139.66
2023-03-11T15:53:22.006Z,93140.41
2023-03-11T15:55:48.843Z,93138.50
2023-03-11T15:58:17.569Z,93143.22
2023-03-11T16:00:52.731Z,93149.84
2023-03-11T16:03:20.030Z,93138.78
2023-03-11T16:05:47.370Z,93143.19
2023-03-11T16:08:14.177Z,93157.22
2023-03-11T16:10:41.147Z,93158.03
2023-03-11T16:13:13.124Z,93148.34
2023-03-11T16:15:39.916Z,93157.56
2023-03-11T16:18:08.920Z,93157.38
2023-03-11T16:20:44.672Z,93168.19
2023-03-11T16:23:18.080Z,93157.56
2023-03-11T16:25:45.171Z,93162.25
2023-03-11T16:28:14.019Z,93161.03
2023-03-11T16:30:40.709Z,93168.66
2023-03-11T16:33:07.507Z,93168.34
2023-03-11T16:35:34.742Z,93178.81
2023-03-11T16:38:01.854Z,93177.84
2023-03-11T16:40:29.272Z,93183.38
2023-03-11T16:42:58.992Z,93180.03
2023-03-11T16:45:25.911Z,93179.28
2023-03-11T16:47:52.629Z,93204.41
2023-03-11T16:50:20.982Z,93204.16
2023-03-11T16:52:47.880Z,93219.94
2023-03-11T16:55:14.664Z,93212.25
2023-03-11T16:57:41.394Z,93217.59
2023-03-11T17:00:09.920Z,93227.88
2023-03-11T17:02:37.791Z,93232.63
2023-03-11T17:05:05.919Z,93239.59
2023-03-11T17:07:33.187Z,93248.09
2023-03-11T17:10:00.327Z,93237.50
2023-03-11T17:12:28.114Z,93240.63
2023-03-11T17:14:55.455Z,93244.00
2023-03-11T17:17:22.475Z,93248.38
2023-03-11T17:19:49.334Z,93261.00
2023-03-11T17:22:16.555Z,93257.84
2023-03-11T17:24:43.364Z,93264.75
2023-03-11T17:27:10.167Z,93266.91
2023-03-11T17:29:36.918Z,93273.25
2023-03-11T17:32:06.133Z,93283.53
2023-03-11T17:34:32.886Z,93283.75
2023-03-11T17:36:59.596Z,93287.69
2023-03-11T17:39:26.395Z,93289.28
2023-03-11T17:41:53.105Z,93294.22
2023-03-11T17:44:19.891Z,93298.75
2023-03-11T17:46:46.638Z,93296.38
2023-03-11T17:49:14.709Z,93303.47
2023-03-11T17:51:41.679Z,93304.88
2023-03-11T17:54:08.447Z,93296.94
2023-03-11T17:56:35.372Z,93296.53
2023-03-11T17:59:02.102Z,93296.13
2023-03-11T18:01:29.543Z,93292.34
2023-03-11T18:03:56.275Z,93299.88
2023-03-11T18:06:23.564Z,93302.66
2023-03-11T18:08:50.613Z,93310.69
2023-03-11T18:11:20.919Z,93322.16
2023-03-11T18:13:47.728Z,93321.38
2023-03-11T18:16:17.700Z,93330.66
2023-03-11T18:18:44.836Z,93336.53
2023-03-11T18:21:20.817Z,93343.03
2023-03-11T18:23:48.449Z,93340.13
2023-03-11T18:26:17.655Z,93344.59
2023-03-11T18:28:44.577Z,93344.97
2023-03-11T18:31:12.849Z,93336.09
2023-03-11T18:33:40.786Z,93344.59
2023-03-11T18:36:16.352Z,93348.34
2023-03-11T18:38:43.820Z,93348.09
2023-03-11T18:41:10.717Z,93344.34
2023-03-11T18:43:38.354Z,93339.16
2023-03-11T18:46:13.781Z,93340.50
2023-03-11T18:48:41.082Z,93342.06
2023-03-11T18:51:09.077Z,93344.72
2023-03-11T18:53:36.308Z,93355.81
2023-03-11T18:56:08.735Z,93357.84
2023-03-11T18:58:35.442Z,93360.97
2023-03-11T19:01:10.584Z,93352.88
2023-03-11T19:03:38.358Z,93357.00
2023-03-11T19:06:05.628Z,93356.63
2023-03-11T19:08:32.329Z,93355.25
2023-03-11T19:10:59.173Z,93356.19
2023-03-11T19:13:37.161Z,93364.25
2023-03-11T19:16:11.956Z,93378.84
2023-03-11T19:18:41.295Z,93379.03
2023-03-11T19:21:09.008Z,93376.22
2023-03-11T19:23:35.829Z,93378.88
2023-03-11T19:26:03.533Z,93389.75
2023-03-11T19:28:30.502Z,93393.81
2023-03-11T19:30:58.866Z,93400.53
2023-03-11T19:33:26.570Z,93401.56
2023-03-11T19:35:55.111Z,93408.66
2023-03-11T19:38:22.787Z,93389.06
2023-03-11T19:40:54.391Z,93408.72
2023-03-11T19:43:21.836Z,93413.41
2023-03-11T19:45:50.371Z,93393.72
2023-03-11T19:48:17.479Z,93398.69
2023-03-11T19:50:44.423Z,93402.03
2023-03-11T19:53:11.279Z,93412.22
2023-03-11T19:55:37.966Z,93413.63
2023-03-11T19:58:04.574Z,93403.88
2023-03-11T20:00:31.504Z,93413.00
2023-03-11T20:02:58.150Z,93418.13
2023-03-11T20:05:25.068Z,93410.22
2023-03-11T20:07:51.754Z,93397.16
2023-03-11T20:10:18.566Z,93403.09
2023-03-11T20:13:01.479Z,93406.06
2023-03-11T20:15:31.666Z,93404.41
2023-03-11T20:18:00.887Z,93410.25
2023-03-11T20:20:32.652Z,93418.50
2023-03-11T20:23:05.064Z,93419.59
2023-03-11T20:25:35.616Z,93415.09
2023-03-11T20:28:03.334Z,93417.66
2023-03-11T20:30:32.989Z,93421.97
2023-03-11T20:33:00.549Z,93421.09
2023-03-11T20:35:27.905Z,93422.75
2023-03-11T20:37:55.137Z,93426.00
2023-03-11T20:40:22.160Z,93426.97
2023-03-11T20:42:50.666Z,93431.06
2023-03-11T20:45:22.523Z,93429.88
2023-03-11T20:47:54.215Z,93437.06
2023-03-11T20:50:22.302Z,93432.16
2023-03-11T20:52:51.256Z,93440.03
2023-03-11T20:55:19.516Z,93442.66
2023-03-11T20:57:47.037Z,93449.88
2023-03-11T21:00:15.332Z,93450.69
2023-03-11T21:02:43.254Z,93453.38
2023-03-11T21:05:11.945Z,93454.72
2023-03-11T21:07:39.690Z,93453.84
2023-03-11T21:10:09.941Z,93462.31
2023-03-11T21:12:37.010Z,93467.00
2023-03-11T21:15:05.058Z,93463.53
2023-03-11T21:17:32.981Z,93469.63
2023-03-11T21:19:59.982Z,93464.81
2023-03-11T21:22:27.444Z,93464.50
2023-03-11T21:24:55.782Z,93460.66
2023-03-11T21:27:26.615Z,93458.78
2023-03-11T21:29:54.687Z,93466.84
2023-03-11T21:32:22.654Z,93469.13
2023-03-11T21:34:50.752Z,93473.16
2023-03-11T21:37:17.824Z,93479.31
2023-03-11T21:39:45.388Z,93483.03
2023-03-11T21:42:12.741Z,93494.41
2023-03-11T21:44:39.546Z,93488.34
2023-03-11T21:47:07.092Z,93495.38
2023-03-11T21:49:34.025Z,93493.00
2023-03-11T21:52:02.311Z,93493.19
2023-03-11T21:54:29.554Z,93488.34
2023-03-11T21:56:56.917Z,93490.28
2023-03-11T21:59:25.643Z,93496.63
2023-03-11T22:01:53.461Z,93498.63
2023-03-11T22:04:20.384Z,93484.81
2023-03-11T22:06:47.491Z,93486.81
2023-03-11T22:09:14.674Z,93505.50
2023-03-11T22:11:41.566Z,93500.94
2023-03-11T22:14:08.267Z,93505.06
2023-03-11T22:16:35.349Z,93515.56
2023-03-11T22:19:04.323Z,93508.88
2023-03-11T22:21:31.295Z,93503.41
2023-03-11T22:23:58.107Z,93492.28
2023-03-11T22:26:24.855Z,93490.69
2023-03-11T22:28:51.773Z,93508.09
2023-03-11T22:31:19.098Z,93508.88
2023-03-11T22:33:46.214Z,93508.44
2023-03-11T22:36:13.053Z,93511.25
2023-03-11T22:38:42.004Z,93514.00
2023-03-11T22:41:09.074Z,93511.78
2023-03-11T22:43:36.662Z,93508.25
2023-03-11T22:46:04.761Z,93513.28
2023-03-11T22:48:32.532Z,93510.56
2023-03-11T22:50:59.131Z,93516.81
2023-03-11T22:53:26.000Z,93514.44
2023-03-11T22:55:52.774Z,93516.81
2023-03-11T22:58:19.890Z,93523.25
2023-03-11T23:00:46.766Z,93517.63
2023-03-11T23:03:14.030Z,93525.63
2023-03-11T23:05:45.985Z,93532.59
2023-03-11T23:08:16.591Z,93519.91
2023-03-11T23:10:44.895Z,93535.13
2023-03-11T23:13:12.127Z,93532.41
2023-03-11T23:15:42.864Z,93544.50
2023-03-11T23:18:09.875Z,93541.94
2023-03-11T23:20:37.757Z,93548.47
2023-03-11T23:23:04.753Z,93545.34
2023-03-11T23:25:32.143Z,93541.66
2023-03-11T23:27:58.906Z,93548.88
2023-03-11T23:30:25.530Z,93546.31
2023-03-11T23:32:52.139Z,93553.19
2023-03-11T23:35:18.958Z,93551.19
2023-03-11T23:37:50.617Z,93558.66
2023-03-11T23:40:18.262Z,93555.56
2023-03-11T23:42:45.002Z,93560.34
2023-03-11T23:45:11.762Z,93562.06
2023-03-11T23:47:38.446Z,93560.81
2023-03-11T23:50:06.038Z,93562.91
2023-03-11T23:52:33.110Z,93565.13
2023-03-11T23:54:59.764Z,93562.72
2023-03-11T23:57:26.656Z,93563.03
2023-03-11T23:59:53.220Z,93570.56
